Hlavní strana
METAR-TAF:

METAR-TAF

Letiště :

Panama Pacifico, Panama

zeměpisná šířka: 08-55N, zeměpisná délka: 079-36W, výška: 16 m

Aktuální stav počasí

Zpráva byla vytvořena před 4 hodinami a 20 minutami, v 03:00 UTC
Bezvětří
Teplota 25°C
Vlhkost vzduchu 100%
Tlak 1009 hPa
Viditelnost 10 km a více
Skoro jasno ve výšce 1800 ft

METAR: MPPA 130300Z 00000KT 9999 FEW018 25/25 Q1009

Čas: 02:20 (07:20 UTC)

Předpověď počasí

Zpráva byla vytvořena před 9 hodinami a 5 minutami, v 22:15 UTC
Předpověď platná od 13 v 00 UTC do 14 v 06 UTC
Severoseverozápadní vítr 6 kt
Viditelnost 10 km a více
Polojasno ve výšce 1800 ft
Polojasno ve výšce 8000 ft
Změna
od 13 v 04 UTC do 13 v 08 UTC
Západoseverozápadní vítr 6 kt
Polojasno ve výšce 1600 ft

TAF: MPPA 122215Z 1300/1406 33006KT 9999 SCT018 SCT080 BECMG 1304/1308 30006KT SCT016

Stav a předpovědi počasí z více než 4 000 letišť (zprávy METAR a TAF).

Červené a žluté tečky na mapě představují dostupné meteorologické stanice.

Když kurzor umístíte na tečku, zobrazí se název stanice.

Pak kliknutím zobrazíte stav a předpověď počasí.

Chcete-li změnit mapu, kliknutím na zelené tlačítko se znaménkem +mapu přiblížíte, kliknutím na zelené tlačítko se znaménkem – mapu oddálíte a kliknutím na zelené šipky přejdete na sousední mapy.


METAR-TAF: